Time;durP1;ratioP1;P1;durP2;ratioP2;P2;SDS_P1;SDS_P2;PMS_P1;PMS_P2;Temp;Humidity;BMP_temperature;BMP_pressure;BME280_temperature;BME280_humidity;BME280_pressure;Samples;Min_cycle;Max_cycle;Signal;HPM_P1;HPM_P2
2021/05/08 00:01:18;;;;;;;6.33;4.17;;;5.00;91.00;;;;;;5054527;28;20032;-84
2021/05/08 00:03:47;;;;;;;7.13;4.50;;;5.00;91.00;;;;;;5037237;28;20059;-84
2021/05/08 00:06:21;;;;;;;7.27;4.67;;;5.00;91.00;;;;;;5058149;28;20929;-87
2021/05/08 00:08:48;;;;;;;8.13;5.33;;;4.90;91.10;;;;;;5087072;28;20040;-80
2021/05/08 00:11:15;;;;;;;7.53;5.80;;;4.90;91.30;;;;;;5070338;28;20036;-80
2021/05/08 00:13:41;;;;;;;9.57;6.40;;;4.90;91.40;;;;;;5018476;28;20391;-81
2021/05/08 00:16:10;;;;;;;8.83;5.73;;;4.90;91.50;;;;;;5035858;28;20873;-80
2021/05/08 00:18:37;;;;;;;6.90;5.17;;;4.90;91.50;;;;;;5053373;28;20036;-80
2021/05/08 00:21:04;;;;;;;7.83;5.83;;;4.80;91.50;;;;;;5053980;28;20059;-81
2021/05/08 00:23:31;;;;;;;9.53;5.97;;;4.80;91.50;;;;;;5046445;28;20037;-82
2021/05/08 00:25:57;;;;;;;7.10;4.57;;;4.80;91.70;;;;;;5071108;28;20812;-81
2021/05/08 00:28:24;;;;;;;7.77;5.13;;;4.80;91.70;;;;;;5053244;28;20039;-80
2021/05/08 00:30:59;;;;;;;7.60;5.80;;;4.70;91.60;;;;;;5045464;28;20048;-81
2021/05/08 00:33:26;;;;;;;7.80;5.43;;;4.70;91.70;;;;;;5036909;28;20040;-80
2021/05/08 00:35:52;;;;;;;7.30;4.70;;;4.70;91.70;;;;;;5020315;28;20043;-81
2021/05/08 00:38:19;;;;;;;9.17;5.63;;;4.70;91.70;;;;;;5054857;28;20024;-81
2021/05/08 00:40:46;;;;;;;8.07;4.70;;;4.70;91.90;;;;;;5055608;28;20036;-80
2021/05/08 00:43:15;;;;;;;6.20;5.07;;;4.70;92.10;;;;;;5070541;28;20040;-81
2021/05/08 00:45:42;;;;;;;8.20;5.60;;;4.60;92.00;;;;;;5076837;28;20094;-81
2021/05/08 00:48:13;;;;;;;5.57;4.30;;;4.60;92.10;;;;;;5068545;28;20040;-80
2021/05/08 00:50:41;;;;;;;6.65;5.03;;;4.60;92.10;;;;;;5051862;28;20040;-81
2021/05/08 00:53:10;;;;;;;8.17;4.37;;;4.60;92.10;;;;;;5052344;28;20138;-80
2021/05/08 00:55:39;;;;;;;6.37;3.37;;;4.50;92.10;;;;;;5084692;28;20064;-81
2021/05/08 00:58:08;;;;;;;11.23;4.30;;;4.50;92.00;;;;;;5056487;28;20537;-81
2021/05/08 01:00:38;;;;;;;7.63;4.60;;;4.50;92.00;;;;;;5048183;28;20392;-80
2021/05/08 01:03:07;;;;;;;7.63;4.63;;;4.50;92.00;;;;;;5071235;28;20395;-80
2021/05/08 01:05:36;;;;;;;9.60;5.07;;;4.50;92.00;;;;;;5041200;28;20044;-78
2021/05/08 01:08:22;;;;;;;8.23;6.28;;;4.50;92.10;;;;;;5087042;28;20040;-85
2021/05/08 01:10:50;;;;;;;;;;;4.50;92.20;;;;;;5066491;28;20052;-83
2021/05/08 01:13:17;;;;;;;4.90;3.60;;;4.50;92.20;;;;;;5055059;28;19915;-85
2021/05/08 01:15:45;;;;;;;10.83;5.70;;;4.40;92.10;;;;;;5049406;28;20059;-84
2021/05/08 01:18:13;;;;;;;9.33;5.57;;;4.40;92.20;;;;;;5067141;28;20025;-84
2021/05/08 01:20:43;;;;;;;8.87;5.97;;;4.40;92.30;;;;;;5051979;28;20028;-85
2021/05/08 01:23:11;;;;;;;10.13;6.47;;;4.40;92.40;;;;;;5071652;28;20044;-85
2021/05/08 01:25:37;;;;;;;10.10;7.27;;;4.40;92.50;;;;;;5067991;28;20052;-85
2021/05/08 01:28:07;;;;;;;10.37;5.97;;;4.40;92.60;;;;;;5022521;28;20037;-85
2021/05/08 01:30:41;;;;;;;11.10;6.17;;;4.30;92.60;;;;;;5055918;28;20036;-86
2021/05/08 01:33:19;;;;;;;8.40;5.33;;;4.30;92.60;;;;;;5056423;28;20048;-83
2021/05/08 01:35:46;;;;;;;25.87;18.73;;;4.30;92.60;;;;;;5055174;28;20037;-84
2021/05/08 01:38:12;;;;;;;31.03;19.30;;;4.30;92.70;;;;;;5068525;28;20045;-83
2021/05/08 01:40:47;;;;;;;14.50;9.67;;;4.20;92.70;;;;;;5082025;28;20036;-85
2021/05/08 01:43:22;;;;;;;8.38;6.90;;;4.20;92.70;;;;;;5071099;28;20032;-86
2021/05/08 01:45:49;;;;;;;9.03;5.90;;;4.30;92.80;;;;;;5039771;28;20502;-86
2021/05/08 01:48:15;;;;;;;8.43;5.80;;;4.20;92.70;;;;;;5087111;28;20043;-85
2021/05/08 01:50:42;;;;;;;6.23;4.53;;;4.20;92.70;;;;;;5041724;28;20055;-85
2021/05/08 01:53:12;;;;;;;7.03;5.07;;;4.20;92.80;;;;;;5057926;28;20031;-85
2021/05/08 01:55:43;;;;;;;7.80;6.53;;;4.20;92.70;;;;;;5040973;28;20044;-85
2021/05/08 01:58:21;;;;;;;12.43;6.53;;;4.20;92.80;;;;;;5067952;28;20031;-86
2021/05/08 02:00:52;;;;;;;9.53;6.03;;;4.20;92.90;;;;;;5069876;28;20028;-85
2021/05/08 02:03:23;;;;;;;7.00;4.57;;;4.20;92.90;;;;;;5054918;28;20044;-85
2021/05/08 02:05:51;;;;;;;19.93;10.07;;;4.20;92.80;;;;;;5071062;28;20031;-85
2021/05/08 02:08:44;;;;;;;12.37;9.33;;;4.20;92.90;;;;;;5048370;28;20051;-85
2021/05/08 02:11:18;;;;;;;13.38;10.00;;;4.20;93.00;;;;;;5056363;28;20032;-84
2021/05/08 02:13:48;;;;;;;11.10;8.73;;;4.20;93.10;;;;;;5057077;28;20040;-92
2021/05/08 02:16:15;;;;;;;11.60;8.73;;;4.20;93.10;;;;;;5058715;28;20039;-93
2021/05/08 02:18:42;;;;;;;13.10;8.97;;;4.20;93.00;;;;;;5069468;28;20372;-93
2021/05/08 02:21:10;;;;;;;9.70;7.03;;;4.20;93.10;;;;;;5059088;28;20044;-92
2021/05/08 02:23:46;;;;;;;9.00;6.67;;;4.30;93.10;;;;;;5056157;28;20028;-92
2021/05/08 02:26:13;;;;;;;11.30;7.17;;;4.30;93.10;;;;;;5042760;28;20055;-92
2021/05/08 02:28:40;;;;;;;9.00;7.47;;;4.30;93.10;;;;;;5037374;28;20059;-91
2021/05/08 02:31:10;;;;;;;9.07;8.17;;;4.30;93.10;;;;;;5058978;28;20394;-91
2021/05/08 02:33:39;;;;;;;11.15;8.30;;;4.40;93.10;;;;;;5058028;28;20036;-94
2021/05/08 02:36:06;;;;;;;12.90;8.73;;;4.50;93.10;;;;;;5064281;28;20031;-94
2021/05/08 02:38:36;;;;;;;11.20;9.00;;;4.50;93.10;;;;;;5095874;28;20050;-95
2021/05/08 02:41:05;;;;;;;10.03;7.97;;;4.60;93.20;;;;;;5080850;28;20032;-95
2021/05/08 02:43:34;;;;;;;10.43;8.63;;;4.60;93.20;;;;;;5081837;28;20031;-94
2021/05/08 02:46:09;;;;;;;13.53;10.00;;;4.70;93.20;;;;;;5082471;28;20035;-94
2021/05/08 02:48:36;;;;;;;10.80;8.07;;;4.70;93.20;;;;;;5080164;28;20040;-94
2021/05/08 02:51:03;;;;;;;11.43;9.07;;;4.80;93.30;;;;;;5024469;28;20041;-93
2021/05/08 02:53:29;;;;;;;12.17;10.10;;;4.80;93.30;;;;;;5040950;28;20059;-95
2021/05/08 02:55:57;;;;;;;11.37;9.20;;;4.80;93.30;;;;;;5041449;28;20028;-93
2021/05/08 02:58:30;;;;;;;;;;;4.80;93.40;;;;;;5026738;28;20044;-93
2021/05/08 03:00:59;;;;;;;12.10;10.03;;;4.90;93.40;;;;;;5060842;28;19908;-95
2021/05/08 03:03:29;;;;;;;13.88;10.15;;;4.90;93.40;;;;;;5041183;28;20075;-95
2021/05/08 03:05:56;;;;;;;16.80;10.93;;;5.00;93.40;;;;;;5048820;28;20032;-93
2021/05/08 03:08:29;;;;;;;15.03;10.67;;;5.00;93.40;;;;;;5035971;28;20040;-95
2021/05/08 03:11:19;;;;;;;13.63;10.30;;;5.10;93.40;;;;;;5040044;28;20479;-91
2021/05/08 03:13:48;;;;;;;11.77;9.77;;;5.10;93.50;;;;;;5058179;28;20475;-83
2021/05/08 03:16:15;;;;;;;12.40;9.47;;;5.10;93.40;;;;;;5052720;28;20036;-87
2021/05/08 03:18:49;;;;;;;11.53;8.13;;;5.10;93.70;;;;;;5054854;28;20078;-89
2021/05/08 03:21:20;;;;;;;14.63;9.27;;;5.20;93.50;;;;;;5036241;28;20542;-87
2021/05/08 03:23:47;;;;;;;16.77;10.00;;;5.20;93.40;;;;;;5053368;28;20032;-88
2021/05/08 03:26:22;;;;;;;10.20;8.20;;;5.20;93.40;;;;;;5060879;28;20035;-89
2021/05/08 03:28:49;;;;;;;11.33;8.37;;;5.30;93.40;;;;;;5051452;28;20027;-90
2021/05/08 03:31:19;;;;;;;12.60;9.47;;;5.30;93.40;;;;;;5024872;28;20048;-90
2021/05/08 03:33:49;;;;;;;11.33;8.50;;;5.30;93.40;;;;;;5055274;28;20028;-85
2021/05/08 03:36:15;;;;;;;13.40;8.77;;;5.30;93.40;;;;;;5060616;28;20690;-88
2021/05/08 03:38:42;;;;;;;13.63;10.47;;;5.20;93.40;;;;;;5073055;28;20023;-88
2021/05/08 03:41:09;;;;;;;10.87;8.50;;;5.10;93.50;;;;;;5041169;28;20039;-87
2021/05/08 03:43:36;;;;;;;12.23;9.43;;;5.10;93.60;;;;;;5055621;28;20040;-87
2021/05/08 03:46:03;;;;;;;12.60;9.83;;;5.10;93.60;;;;;;5041857;28;20039;-89
2021/05/08 03:48:35;;;;;;;12.60;10.83;;;5.10;93.70;;;;;;5057905;28;20600;-87
2021/05/08 03:51:07;;;;;;;11.27;9.47;;;5.10;93.80;;;;;;5057580;28;20410;-88
2021/05/08 03:53:36;;;;;;;15.33;11.13;;;5.10;93.70;;;;;;5050940;28;20035;-86
2021/05/08 03:56:03;;;;;;;12.53;9.17;;;5.10;93.70;;;;;;5064514;28;20513;-84
2021/05/08 03:58:31;;;;;;;14.80;10.60;;;5.20;93.70;;;;;;5015732;28;20052;-87
2021/05/08 04:01:01;;;;;;;14.07;9.70;;;5.20;93.70;;;;;;5032711;28;20047;-87
2021/05/08 04:03:28;;;;;;;13.67;10.80;;;5.20;93.60;;;;;;5052812;28;20108;-85
2021/05/08 04:05:58;;;;;;;14.13;11.50;;;5.20;93.60;;;;;;5049503;28;20040;-85
2021/05/08 04:08:24;;;;;;;14.60;11.30;;;5.10;93.60;;;;;;5067134;28;20036;-84
2021/05/08 04:10:51;;;;;;;20.27;13.03;;;5.10;93.70;;;;;;5049078;28;20402;-83
2021/05/08 04:13:21;;;;;;;17.00;11.97;;;5.10;93.70;;;;;;5051592;28;20036;-85
2021/05/08 04:15:51;;;;;;;19.90;13.00;;;5.00;93.70;;;;;;5081307;28;20032;-86
2021/05/08 04:18:20;;;;;;;18.48;12.82;;;5.00;93.80;;;;;;5053572;28;20039;-82
2021/05/08 04:20:47;;;;;;;16.77;12.10;;;4.90;94.10;;;;;;5066994;28;20048;-82
2021/05/08 04:23:14;;;;;;;21.37;14.37;;;4.90;93.80;;;;;;5056487;28;20032;-82
2021/05/08 04:25:40;;;;;;;21.33;14.17;;;4.90;93.90;;;;;;5070500;28;20369;-85
2021/05/08 04:28:11;;;;;;;20.93;13.63;;;4.90;93.90;;;;;;5057257;28;20028;-85
2021/05/08 04:30:38;;;;;;;17.93;12.93;;;4.90;94.00;;;;;;5050492;28;20043;-85
2021/05/08 04:33:05;;;;;;;18.10;13.20;;;4.90;94.00;;;;;;5053015;28;20487;-85
2021/05/08 04:35:31;;;;;;;19.87;12.47;;;4.90;93.90;;;;;;5066830;28;20043;-83
2021/05/08 04:38:24;;;;;;;20.37;14.00;;;4.90;93.90;;;;;;5054612;28;20039;-86
2021/05/08 04:40:55;;;;;;;17.13;11.63;;;5.10;94.00;;;;;;5077909;28;20032;-82
2021/05/08 04:43:22;;;;;;;21.17;14.07;;;5.20;93.90;;;;;;5081471;28;20514;-83
2021/05/08 04:45:56;;;;;;;19.00;13.93;;;5.30;93.90;;;;;;5034990;28;20387;-83
2021/05/08 04:48:27;;;;;;;20.53;13.33;;;5.40;93.80;;;;;;5070160;28;20047;-84
2021/05/08 04:50:59;;;;;;;20.87;13.80;;;5.60;93.70;;;;;;5048968;28;20051;-83
2021/05/08 04:53:26;;;;;;;16.80;12.60;;;5.70;93.60;;;;;;5076678;28;20048;-83
2021/05/08 04:55:53;;;;;;;15.53;10.33;;;6.00;93.50;;;;;;5049775;28;20039;-82
2021/05/08 04:58:21;;;;;;;18.10;12.87;;;6.20;93.40;;;;;;5057513;28;20032;-82
2021/05/08 05:00:48;;;;;;;17.60;11.87;;;6.40;93.10;;;;;;5050581;28;20135;-81
2021/05/08 05:03:14;;;;;;;17.53;12.50;;;6.60;92.90;;;;;;5068775;28;20052;-81
2021/05/08 05:05:41;;;;;;;19.23;12.40;;;6.70;92.80;;;;;;5068008;28;20111;-81
2021/05/08 05:08:08;;;;;;;16.67;12.63;;;6.70;92.70;;;;;;5059795;28;20036;-81
2021/05/08 05:10:34;;;;;;;13.60;9.53;;;6.80;92.60;;;;;;5073509;28;20040;-81
2021/05/08 05:13:01;;;;;;;18.37;12.20;;;6.80;92.50;;;;;;5077951;28;20055;-82
2021/05/08 05:15:30;;;;;;;17.63;12.97;;;6.80;92.40;;;;;;5087620;28;20048;-82
2021/05/08 05:17:59;;;;;;;17.45;12.25;;;6.80;92.30;;;;;;5073134;28;20040;-81
2021/05/08 05:20:26;;;;;;;19.13;12.63;;;6.80;92.30;;;;;;5020551;28;20059;-80
2021/05/08 05:22:52;;;;;;;14.77;11.03;;;6.80;92.30;;;;;;5027602;28;20032;-82
2021/05/08 05:25:19;;;;;;;16.87;12.60;;;6.80;92.20;;;;;;5077699;28;20051;-81
2021/05/08 05:27:48;;;;;;;16.60;11.70;;;6.80;92.20;;;;;;5044533;28;20044;-82
2021/05/08 05:30:15;;;;;;;17.20;11.57;;;6.80;92.10;;;;;;5086061;28;20063;-82
2021/05/08 05:32:44;;;;;;;17.60;11.03;;;6.80;92.10;;;;;;5072808;28;20512;-83
2021/05/08 05:35:14;;;;;;;14.00;11.03;;;6.70;92.10;;;;;;5059234;28;20078;-90
2021/05/08 05:37:41;;;;;;;17.00;13.10;;;6.70;92.10;;;;;;5059103;28;20028;-84
2021/05/08 05:40:09;;;;;;;13.73;10.40;;;6.80;92.20;;;;;;5065836;28;20030;-83
2021/05/08 05:42:35;;;;;;;13.20;10.77;;;6.90;92.10;;;;;;5071907;28;20043;-83
2021/05/08 05:45:02;;;;;;;15.33;11.87;;;7.00;92.00;;;;;;5072657;28;20491;-83
2021/05/08 05:47:31;;;;;;;17.40;12.97;;;7.10;91.90;;;;;;5042270;28;20052;-82
2021/05/08 05:49:59;;;;;;;15.97;11.80;;;7.30;91.90;;;;;;5056928;28;20399;-83
2021/05/08 05:52:27;;;;;;;15.40;11.83;;;7.50;91.60;;;;;;5090060;28;20032;-82
2021/05/08 05:55:04;;;;;;;13.67;8.77;;;7.60;91.30;;;;;;5053850;28;20032;-86
2021/05/08 05:57:46;;;;;;;14.77;10.20;;;7.70;91.20;;;;;;5072324;28;20051;-87
2021/05/08 06:00:27;;;;;;;13.05;8.65;;;7.80;91.00;;;;;;5052701;28;20031;-87
2021/05/08 06:02:54;;;;;;;15.25;11.45;;;7.90;90.90;;;;;;5084611;28;20407;-85
2021/05/08 06:05:21;;;;;;;12.35;10.05;;;8.00;90.70;;;;;;5076490;28;20023;-85
2021/05/08 06:07:47;;;;;;;12.68;10.32;;;8.00;90.70;;;;;;5071127;28;20036;-85
2021/05/08 06:10:15;;;;;;;12.10;9.53;;;8.10;90.30;;;;;;5067865;28;20036;-85
2021/05/08 06:12:42;;;;;;;15.00;9.98;;;8.20;90.20;;;;;;5066438;28;20641;-86
2021/05/08 06:15:10;;;;;;;15.10;11.03;;;8.30;90.00;;;;;;5059417;28;20478;-85
2021/05/08 06:17:37;;;;;;;11.55;8.93;;;8.40;89.80;;;;;;5059603;28;20044;-85
2021/05/08 06:20:05;;;;;;;16.40;11.52;;;8.60;89.60;;;;;;5036382;28;20032;-84
2021/05/08 06:22:35;;;;;;;13.32;11.40;;;8.70;88.30;;;;;;5037250;28;20036;-84
2021/05/08 06:25:02;;;;;;;11.27;9.07;;;8.80;87.60;;;;;;5053710;28;20383;-84
2021/05/08 06:27:29;;;;;;;13.10;9.70;;;8.90;87.50;;;;;;5065180;28;20056;-85
2021/05/08 06:29:56;;;;;;;11.65;9.25;;;9.00;86.90;;;;;;5024246;28;20036;-85
2021/05/08 06:32:23;;;;;;;12.90;8.68;;;9.10;86.60;;;;;;5064249;28;20036;-85
2021/05/08 06:34:49;;;;;;;12.60;7.95;;;9.20;86.50;;;;;;5067408;28;20036;-85
2021/05/08 06:37:19;;;;;;;10.23;7.30;;;9.20;86.20;;;;;;5072405;28;20068;-85
2021/05/08 06:39:46;;;;;;;12.80;9.20;;;9.30;85.80;;;;;;5050254;28;20039;-85
2021/05/08 06:42:12;;;;;;;9.13;6.32;;;9.40;85.80;;;;;;5048799;28;20041;-85
2021/05/08 06:44:40;;;;;;;11.60;7.90;;;9.50;85.70;;;;;;5069914;28;20506;-84
2021/05/08 06:47:13;;;;;;;9.30;6.78;;;9.60;85.10;;;;;;5064984;28;20043;-84
2021/05/08 06:49:42;;;;;;;12.43;9.45;;;9.70;84.70;;;;;;5084982;28;20102;-86
2021/05/08 06:52:09;;;;;;;10.55;7.43;;;9.80;83.20;;;;;;5051227;28;20044;-84
2021/05/08 06:54:36;;;;;;;7.82;6.47;;;9.90;82.70;;;;;;5031402;28;20052;-84
2021/05/08 06:57:04;;;;;;;11.73;6.85;;;10.00;82.50;;;;;;5052153;28;20039;-85
2021/05/08 06:59:30;;;;;;;9.88;6.03;;;10.00;81.80;;;;;;5050905;28;20510;-85
2021/05/08 07:01:57;;;;;;;9.02;6.35;;;10.10;81.60;;;;;;5019348;28;20046;-85
2021/05/08 07:04:24;;;;;;;10.80;6.90;;;10.30;81.30;;;;;;5035468;28;20401;-85
2021/05/08 07:06:50;;;;;;;8.95;7.05;;;10.30;80.10;;;;;;5035997;28;20406;-86
2021/05/08 07:09:17;;;;;;;9.27;6.05;;;10.30;79.70;;;;;;5067154;28;20574;-85
2021/05/08 07:11:46;;;;;;;10.32;7.93;;;10.30;79.90;;;;;;5065656;28;20043;-85
2021/05/08 07:14:13;;;;;;;7.25;6.25;;;10.40;79.80;;;;;;5086036;28;20398;-85
2021/05/08 07:16:39;;;;;;;8.75;7.60;;;10.40;79.70;;;;;;5049783;28;20044;-85
2021/05/08 07:19:06;;;;;;;12.45;7.90;;;10.50;79.30;;;;;;5037166;28;20039;-85
2021/05/08 07:21:33;;;;;;;9.10;7.47;;;10.50;79.40;;;;;;5035091;28;20051;-86
2021/05/08 07:23:59;;;;;;;9.57;7.88;;;10.60;79.00;;;;;;5068708;28;20059;-86
2021/05/08 07:26:28;;;;;;;10.70;7.68;;;10.70;78.80;;;;;;5069044;28;20036;-85
2021/05/08 07:28:55;;;;;;;9.90;6.65;;;10.70;78.30;;;;;;5055477;28;20519;-83
2021/05/08 07:31:24;;;;;;;9.63;8.00;;;10.80;78.10;;;;;;5071427;28;20398;-84
2021/05/08 07:33:50;;;;;;;9.73;7.55;;;10.90;77.90;;;;;;5036486;28;20036;-86
2021/05/08 07:36:17;;;;;;;9.10;7.45;;;11.00;78.00;;;;;;5034455;28;20032;-86
2021/05/08 07:38:44;;;;;;;11.85;7.25;;;11.10;77.80;;;;;;5053912;28;20035;-85
2021/05/08 07:41:10;;;;;;;10.25;7.97;;;11.20;77.50;;;;;;5070872;28;20040;-85
2021/05/08 07:43:37;;;;;;;10.13;7.63;;;11.30;76.90;;;;;;5091375;28;20939;-84
2021/05/08 07:46:03;;;;;;;12.13;8.10;;;11.40;76.50;;;;;;5021619;28;20054;-85
2021/05/08 07:48:30;;;;;;;10.52;6.45;;;11.60;76.70;;;;;;5056189;28;20051;-85
2021/05/08 07:50:57;;;;;;;7.95;5.95;;;11.70;76.50;;;;;;5050028;28;20032;-85
2021/05/08 07:53:26;;;;;;;6.65;5.35;;;12.00;76.50;;;;;;5055285;28;20041;-85
2021/05/08 07:55:52;;;;;;;8.80;6.53;;;12.20;76.20;;;;;;5052418;28;20041;-85
2021/05/08 07:58:25;;;;;;;10.10;6.78;;;12.30;75.50;;;;;;5047360;28;20028;-85
2021/05/08 08:00:51;;;;;;;9.60;6.30;;;12.50;74.40;;;;;;5081789;28;20048;-85
2021/05/08 08:03:19;;;;;;;7.38;4.95;;;12.50;73.10;;;;;;5066370;28;20037;-85
2021/05/08 08:05:46;;;;;;;7.22;5.68;;;12.50;73.60;;;;;;5067068;28;20044;-86
2021/05/08 08:08:12;;;;;;;10.73;5.45;;;12.60;73.50;;;;;;5067776;28;20032;-85
2021/05/08 08:10:39;;;;;;;5.82;4.63;;;12.60;72.20;;;;;;5065604;28;20052;-85
2021/05/08 08:13:05;;;;;;;6.00;4.40;;;12.60;71.90;;;;;;5036426;28;20491;-85
2021/05/08 08:15:32;;;;;;;7.60;4.20;;;12.70;71.90;;;;;;5035325;28;20044;-82
2021/05/08 08:17:58;;;;;;;8.32;4.35;;;12.70;71.30;;;;;;5084848;28;20040;-83
2021/05/08 08:20:43;;;;;;;12.07;5.85;;;12.70;70.90;;;;;;5047857;28;20139;-85
2021/05/08 08:27:35;;;;;;;9.05;5.25;;;12.80;70.60;;;;;;5045632;28;20060;-87
2021/05/08 08:30:43;;;;;;;8.07;4.15;;;12.80;69.30;;;;;;5068613;28;20055;-93
2021/05/08 08:33:10;;;;;;;8.35;4.95;;;12.80;69.30;;;;;;5069091;28;20055;-85
2021/05/08 08:35:55;;;;;;;6.40;4.15;;;12.90;69.20;;;;;;5071009;28;20040;-92
2021/05/08 08:38:35;;;;;;;7.78;4.57;;;12.90;69.20;;;;;;5041702;28;20044;-87
2021/05/08 08:41:53;;;;;;;7.57;4.97;;;13.00;69.10;;;;;;5089270;28;20035;-86
2021/05/08 08:44:20;;;;;;;7.20;4.43;;;13.10;69.30;;;;;;5070041;28;20032;-87
2021/05/08 08:47:32;;;;;;;7.90;4.90;;;13.20;68.80;;;;;;5063607;28;20130;-88
2021/05/08 08:50:08;;;;;;;7.10;5.10;;;13.30;68.70;;;;;;5057998;28;20501;-89
2021/05/08 08:52:37;;;;;;;7.25;5.43;;;13.30;68.40;;;;;;5089690;28;20808;-88
2021/05/08 08:56:12;;;;;;;7.63;4.95;;;13.30;67.90;;;;;;5072780;28;20040;-91
2021/05/08 08:59:31;;;;;;;7.25;5.05;;;13.40;67.90;;;;;;5073216;28;20040;-88
2021/05/08 09:02:30;;;;;;;8.00;4.70;;;13.60;67.80;;;;;;5079404;28;20040;-89
2021/05/08 09:05:00;;;;;;;7.38;4.60;;;13.70;67.50;;;;;;5039712;28;20071;-84
2021/05/08 09:07:36;;;;;;;8.48;4.32;;;13.80;67.20;;;;;;5056150;28;20043;-95
2021/05/08 09:10:04;;;;;;;;;;;13.90;66.60;;;;;;5042609;28;20483;-90
2021/05/08 09:13:10;;;;;;;6.03;5.07;;;14.00;66.10;;;;;;5041155;28;19915;-89
2021/05/08 09:15:56;;;;;;;8.35;3.97;;;14.10;65.20;;;;;;4974986;28;20049;-93
2021/05/08 09:18:38;;;;;;;6.78;3.55;;;14.20;65.50;;;;;;4994716;28;20088;-87
2021/05/08 09:21:25;;;;;;;6.53;4.17;;;14.50;65.60;;;;;;5003729;28;20052;-88
2021/05/08 09:23:57;;;;;;;6.88;3.83;;;14.60;64.40;;;;;;4981611;28;20074;-88
2021/05/08 09:26:24;;;;;;;10.18;5.78;;;14.80;64.90;;;;;;5035782;28;20032;-85
2021/05/08 09:28:52;;;;;;;7.70;6.07;;;15.10;64.00;;;;;;5053659;28;20044;-87
2021/05/08 09:31:19;;;;;;;15.63;10.85;;;15.20;63.70;;;;;;5034092;28;20024;-85
2021/05/08 09:33:53;;;;;;;9.45;5.60;;;15.40;63.40;;;;;;5040641;28;20047;-84
2021/05/08 09:36:22;;;;;;;9.50;4.60;;;15.50;62.40;;;;;;5044075;28;20044;-87
2021/05/08 09:38:49;;;;;;;6.93;4.80;;;15.50;61.40;;;;;;5050109;28;20056;-85
2021/05/08 09:41:17;;;;;;;7.85;5.07;;;15.50;61.00;;;;;;5033739;28;20044;-85
2021/05/08 09:43:44;;;;;;;8.30;5.57;;;15.50;60.80;;;;;;5020672;28;20056;-83
2021/05/08 09:46:25;;;;;;;7.68;4.07;;;15.60;62.40;;;;;;5050432;28;20032;-84
2021/05/08 09:49:11;;;;;;;6.80;4.07;;;15.70;62.00;;;;;;5059546;28;20036;-84
2021/05/08 09:51:38;;;;;;;9.25;3.47;;;15.70;61.10;;;;;;5047127;28;20480;-84
2021/05/08 09:54:15;;;;;;;5.57;3.70;;;15.70;60.80;;;;;;5043011;28;20479;-84
2021/05/08 09:56:45;;;;;;;7.93;4.30;;;15.70;60.70;;;;;;5050705;28;20580;-84
2021/05/08 09:59:37;;;;;;;7.18;3.80;;;15.70;59.90;;;;;;5030428;28;20029;-84
2021/05/08 10:02:06;;;;;;;5.63;2.75;;;15.80;59.80;;;;;;5044303;28;20033;-84
2021/05/08 10:04:34;;;;;;;4.68;3.70;;;15.90;59.70;;;;;;5051245;28;20080;-84
2021/05/08 10:07:11;;;;;;;4.50;2.72;;;16.00;58.50;;;;;;5069769;28;20410;-84
2021/05/08 10:09:40;;;;;;;9.50;3.63;;;16.00;58.70;;;;;;5051352;28;20049;-84
2021/05/08 10:12:14;;;;;;;5.13;2.70;;;16.10;58.10;;;;;;5083685;28;20494;-84
2021/05/08 10:14:47;;;;;;;4.68;3.20;;;16.10;57.60;;;;;;5087422;28;20043;-92
2021/05/08 10:18:05;;;;;;;5.95;2.80;;;16.10;57.00;;;;;;5059567;28;20051;-91
2021/05/08 10:20:38;;;;;;;5.90;2.78;;;16.10;57.90;;;;;;5055131;28;20036;-91
2021/05/08 10:23:13;;;;;;;5.90;2.80;;;16.20;57.00;;;;;;5055284;28;20031;-91
2021/05/08 10:25:45;;;;;;;8.95;3.10;;;16.30;57.40;;;;;;5059534;28;20032;-90
2021/05/08 10:28:16;;;;;;;5.25;2.72;;;16.40;57.80;;;;;;5058567;28;20032;-91
2021/05/08 10:30:48;;;;;;;4.32;2.70;;;16.50;58.00;;;;;;5072925;28;20530;-90
2021/05/08 10:33:18;;;;;;;8.43;3.53;;;16.50;58.80;;;;;;5055522;28;20047;-88
2021/05/08 10:35:52;;;;;;;4.43;2.75;;;16.60;59.00;;;;;;5093064;28;20054;-90
2021/05/08 10:38:34;;;;;;;3.58;1.75;;;16.60;58.20;;;;;;5061728;28;20027;-90
2021/05/08 10:41:04;;;;;;;4.63;1.67;;;16.50;58.50;;;;;;5050056;28;20028;-88
2021/05/08 10:43:56;;;;;;;2.65;1.38;;;16.60;57.30;;;;;;5086539;28;20046;-90
2021/05/08 10:46:28;;;;;;;2.72;0.93;;;16.50;56.70;;;;;;5063094;28;20040;-90
2021/05/08 10:49:10;;;;;;;3.83;1.55;;;16.60;57.10;;;;;;5052521;28;20051;-91
2021/05/08 10:51:54;;;;;;;3.40;1.50;;;16.50;56.00;;;;;;5054509;28;20047;-92
2021/05/08 10:54:46;;;;;;;4.85;1.60;;;16.50;57.00;;;;;;5051442;28;20466;-89
2021/05/08 10:57:18;;;;;;;3.75;1.83;;;16.50;57.50;;;;;;5056022;28;20056;-91
2021/05/08 11:00:07;;;;;;;2.77;1.43;;;16.50;57.30;;;;;;5083326;28;20064;-90
2021/05/08 11:03:00;;;;;;;4.25;1.80;;;16.40;57.20;;;;;;5056422;28;20041;-90
2021/05/08 11:05:39;;;;;;;6.53;2.20;;;16.40;57.70;;;;;;5053862;28;20055;-88
2021/05/08 11:08:30;;;;;;;6.05;1.63;;;16.40;56.70;;;;;;5075407;28;20028;-89
2021/05/08 11:11:03;;;;;;;4.93;1.70;;;16.10;57.80;;;;;;5035899;28;20048;-90
2021/05/08 11:13:42;;;;;;;6.63;2.08;;;16.00;58.70;;;;;;5078136;28;20035;-90
2021/05/08 11:16:30;;;;;;;2.35;1.15;;;15.70;59.60;;;;;;5052151;28;20043;-87
2021/05/08 11:19:01;;;;;;;3.13;1.30;;;15.60;60.20;;;;;;5055835;28;20043;-87
2021/05/08 11:21:46;;;;;;;3.33;1.75;;;15.40;60.20;;;;;;5065925;28;20059;-84
2021/05/08 11:24:36;;;;;;;5.30;2.30;;;15.20;62.00;;;;;;5066539;28;20062;-85
2021/05/08 11:27:03;;;;;;;3.22;2.10;;;15.10;63.60;;;;;;5067639;28;20043;-87
2021/05/08 11:29:31;;;;;;;4.00;1.95;;;15.00;64.60;;;;;;5032528;28;20053;-86
2021/05/08 11:32:01;;;;;;;3.03;1.92;;;15.00;65.90;;;;;;5049896;28;20036;-89
2021/05/08 11:35:14;;;;;;;3.25;1.88;;;15.10;66.50;;;;;;5068610;28;20055;-85
2021/05/08 11:38:28;;;;;;;3.05;1.90;;;15.10;67.40;;;;;;5052262;28;20032;-90
2021/05/08 11:42:00;;;;;;;3.55;1.83;;;15.20;67.80;;;;;;5075842;28;20035;-90
2021/05/08 11:44:58;;;;;;;2.92;1.70;;;15.10;67.40;;;;;;5034071;28;20113;-90
2021/05/08 11:47:54;;;;;;;4.28;1.95;;;15.00;69.00;;;;;;5057603;28;20047;-89
2021/05/08 11:50:46;;;;;;;3.77;1.70;;;14.80;70.40;;;;;;5058425;28;20552;-90
2021/05/08 12:07:22;;;;;;;2.08;1.10;;;14.10;75.10;;;;;;5078963;28;20062;-87
2021/05/08 12:10:23;;;;;;;2.35;1.30;;;14.00;77.30;;;;;;5058043;28;20059;-87
2021/05/08 12:12:50;;;;;;;2.80;1.58;;;13.80;79.00;;;;;;5073977;28;20040;-85
2021/05/08 12:15:23;;;;;;;2.65;1.80;;;13.70;79.80;;;;;;5098434;28;20043;-86
2021/05/08 12:18:04;;;;;;;3.07;1.23;;;13.60;81.20;;;;;;5056991;28;20031;-86
2021/05/08 12:20:37;;;;;;;2.93;1.60;;;13.30;82.30;;;;;;5052437;28;20386;-85
2021/05/08 12:23:13;;;;;;;3.75;1.63;;;13.20;85.30;;;;;;5071594;28;20046;-86
2021/05/08 12:25:40;;;;;;;4.40;2.20;;;13.00;87.60;;;;;;5052765;28;20036;-86
2021/05/08 12:28:22;;;;;;;3.40;2.35;;;12.80;89.50;;;;;;5070758;28;20046;-85
2021/05/08 12:30:51;;;;;;;4.25;3.50;;;12.50;90.60;;;;;;5070678;28;20036;-87
2021/05/08 12:33:23;;;;;;;3.42;2.72;;;12.40;91.40;;;;;;5052708;28;20039;-86
2021/05/08 12:35:51;;;;;;;5.00;3.00;;;12.20;92.00;;;;;;5088203;28;20040;-85
2021/05/08 12:38:21;;;;;;;5.65;3.58;;;12.10;92.50;;;;;;5046147;28;20032;-87
2021/05/08 12:40:51;;;;;;;4.80;3.42;;;11.90;93.10;;;;;;5050423;28;20040;-86
2021/05/08 12:43:24;;;;;;;6.75;3.65;;;11.90;93.60;;;;;;5036646;28;20388;-86
2021/05/08 12:46:11;;;;;;;7.00;3.72;;;11.80;94.20;;;;;;5052591;28;20039;-87
2021/05/08 12:48:40;;;;;;;6.35;3.72;;;11.70;94.50;;;;;;5069823;28;20040;-87
2021/05/08 12:51:25;;;;;;;6.32;3.95;;;11.70;94.90;;;;;;5051869;28;20478;-89
2021/05/08 12:54:24;;;;;;;5.93;3.35;;;11.70;95.20;;;;;;5072481;28;20035;-89
2021/05/08 12:57:13;;;;;;;5.43;3.70;;;11.70;95.50;;;;;;5057516;28;20040;-89
2021/05/08 12:59:41;;;;;;;6.05;3.97;;;11.60;95.60;;;;;;5057334;28;20058;-87
2021/05/08 13:02:21;;;;;;;4.32;3.25;;;11.60;95.80;;;;;;5041501;28;20031;-88
2021/05/08 13:04:50;;;;;;;4.88;3.22;;;11.50;96.00;;;;;;5087963;28;20039;-87
2021/05/08 13:07:32;;;;;;;5.30;3.33;;;11.50;96.20;;;;;;5070795;28;20044;-88
2021/05/08 13:10:21;;;;;;;4.07;2.85;;;11.50;96.40;;;;;;5070034;28;20058;-86
2021/05/08 13:12:57;;;;;;;5.80;3.10;;;11.40;96.70;;;;;;5047156;28;20032;-86
2021/05/08 13:15:34;;;;;;;3.97;2.40;;;11.40;96.80;;;;;;5076543;28;20135;-89
2021/05/08 13:18:02;;;;;;;6.85;3.13;;;11.40;97.00;;;;;;5054406;28;20040;-87
2021/05/08 13:20:42;;;;;;;4.55;3.38;;;11.40;97.00;;;;;;5054208;28;20040;-87
2021/05/08 13:23:11;;;;;;;5.35;3.85;;;11.40;97.30;;;;;;5047728;28;20043;-85
2021/05/08 13:25:41;;;;;;;4.45;3.08;;;11.40;97.30;;;;;;5055244;28;20035;-89
2021/05/08 13:28:08;;;;;;;10.68;6.97;;;11.40;97.30;;;;;;5057915;28;20036;-90
2021/05/08 13:30:35;;;;;;;7.53;3.88;;;11.40;97.50;;;;;;5073763;27;20048;-88
2021/05/08 13:33:02;;;;;;;5.13;4.07;;;11.40;97.50;;;;;;5060013;27;20316;-88